createdAt,value
2018-09-09T00:01:34.971Z,18.60
2018-09-09T00:04:02.428Z,18.50
2018-09-09T00:06:29.706Z,18.50
2018-09-09T00:08:56.872Z,18.40
2018-09-09T00:11:24.370Z,18.30
2018-09-09T00:13:51.543Z,18.30
2018-09-09T00:16:18.900Z,18.20
2018-09-09T00:18:46.081Z,18.20
2018-09-09T00:21:13.294Z,18.00
2018-09-09T00:23:41.600Z,18.00
2018-09-09T00:26:08.792Z,17.90
2018-09-09T00:28:36.039Z,17.90
2018-09-09T00:31:03.210Z,17.90
2018-09-09T00:33:30.340Z,17.80
2018-09-09T00:35:57.846Z,17.70
2018-09-09T00:38:25.241Z,17.60
2018-09-09T00:40:52.545Z,17.50
2018-09-09T00:43:19.751Z,17.60
2018-09-09T00:45:46.917Z,17.70
2018-09-09T00:48:14.112Z,17.70
2018-09-09T00:50:46.951Z,17.70
2018-09-09T00:53:20.016Z,17.50
2018-09-09T00:55:47.172Z,17.60
2018-09-09T00:58:14.482Z,17.70
2018-09-09T01:00:47.451Z,17.70
2018-09-09T01:03:14.664Z,17.70
2018-09-09T01:05:41.816Z,17.70
2018-09-09T01:08:09.009Z,17.70
2018-09-09T01:10:36.155Z,17.70
2018-09-09T01:13:03.280Z,17.70
2018-09-09T01:15:30.544Z,17.60
2018-09-09T01:17:57.794Z,17.60
2018-09-09T01:20:25.034Z,17.50
2018-09-09T01:22:52.235Z,17.50
2018-09-09T01:25:19.689Z,17.40
2018-09-09T01:27:46.864Z,17.30
2018-09-09T01:30:14.085Z,17.20
2018-09-09T01:32:41.239Z,17.20
2018-09-09T01:35:08.378Z,17.10
2018-09-09T01:37:35.692Z,17.00
2018-09-09T01:40:03.022Z,16.90
2018-09-09T01:42:30.169Z,16.90
2018-09-09T01:44:57.349Z,16.80
2018-09-09T01:47:24.594Z,16.80
2018-09-09T01:49:51.757Z,16.70
2018-09-09T01:52:18.929Z,16.70
2018-09-09T01:54:46.036Z,16.70
2018-09-09T01:57:13.272Z,16.70
2018-09-09T01:59:40.652Z,16.70
2018-09-09T02:02:07.764Z,16.80
2018-09-09T02:04:35.046Z,16.90
2018-09-09T02:07:02.756Z,16.70
2018-09-09T02:09:29.887Z,16.70
2018-09-09T02:11:57.322Z,16.80
2018-09-09T02:14:24.537Z,16.70
2018-09-09T02:16:51.815Z,16.70
2018-09-09T02:19:19.117Z,16.60
2018-09-09T02:21:46.511Z,16.60
2018-09-09T02:24:13.704Z,16.50
2018-09-09T02:26:41.079Z,16.50
2018-09-09T02:29:08.360Z,16.30
2018-09-09T02:31:35.568Z,16.20
2018-09-09T02:34:02.920Z,16.20
2018-09-09T02:36:30.220Z,16.20
2018-09-09T02:38:57.490Z,16.30
2018-09-09T02:41:25.108Z,16.40
2018-09-09T02:43:52.494Z,16.40
2018-09-09T02:46:19.956Z,16.40
2018-09-09T02:48:47.176Z,16.30
2018-09-09T02:51:14.401Z,16.20
2018-09-09T02:53:41.837Z,16.10
2018-09-09T02:56:09.525Z,16.10
2018-09-09T02:58:36.845Z,16.10
2018-09-09T03:01:04.477Z,16.20
2018-09-09T03:03:31.761Z,16.20
2018-09-09T03:05:58.955Z,16.20
2018-09-09T03:08:26.161Z,16.10
2018-09-09T03:10:59.049Z,16.00
2018-09-09T03:13:26.259Z,16.00
2018-09-09T03:15:53.369Z,15.80
2018-09-09T03:18:20.526Z,15.80
2018-09-09T03:20:47.676Z,15.80
2018-09-09T03:23:14.793Z,15.80
2018-09-09T03:25:41.937Z,15.90
2018-09-09T03:28:09.089Z,15.90
2018-09-09T03:30:36.254Z,15.80
2018-09-09T03:33:03.501Z,15.80
2018-09-09T03:35:32.804Z,15.70
2018-09-09T03:37:59.992Z,15.70
2018-09-09T03:40:27.283Z,15.60
2018-09-09T03:42:54.455Z,15.60
2018-09-09T03:45:21.773Z,15.60
2018-09-09T03:47:48.955Z,15.60
2018-09-09T03:50:16.104Z,15.60
2018-09-09T03:52:43.307Z,15.70
2018-09-09T03:55:10.480Z,15.80
2018-09-09T03:57:37.711Z,15.70
2018-09-09T04:00:05.173Z,15.80
2018-09-09T04:02:32.383Z,15.80
2018-09-09T04:04:59.521Z,15.60
2018-09-09T04:07:26.771Z,15.60
2018-09-09T04:09:53.950Z,15.40
2018-09-09T04:12:21.070Z,15.30
2018-09-09T04:14:48.233Z,15.40
2018-09-09T04:17:15.466Z,15.30
2018-09-09T04:19:42.705Z,15.40
2018-09-09T04:22:09.906Z,15.40
2018-09-09T04:24:37.146Z,15.40
2018-09-09T04:27:04.436Z,15.50
2018-09-09T04:29:31.753Z,15.30
2018-09-09T04:31:58.925Z,15.30
2018-09-09T04:34:26.124Z,15.20
2018-09-09T04:36:53.301Z,15.20
2018-09-09T04:39:20.512Z,15.20
2018-09-09T04:41:47.732Z,15.30
2018-09-09T04:44:14.909Z,15.30
2018-09-09T04:46:42.131Z,15.20
2018-09-09T04:49:09.872Z,15.30
2018-09-09T04:51:37.069Z,15.30
2018-09-09T04:54:04.511Z,15.30
2018-09-09T04:56:31.784Z,15.20
2018-09-09T04:58:59.032Z,15.30
2018-09-09T05:01:26.304Z,15.30
2018-09-09T05:03:53.372Z,15.30
2018-09-09T05:06:20.748Z,15.30
2018-09-09T05:08:48.077Z,15.40
2018-09-09T05:11:15.285Z,15.40
2018-09-09T05:13:42.469Z,15.40
2018-09-09T05:16:09.755Z,15.30
2018-09-09T05:18:36.936Z,15.20
2018-09-09T05:21:04.048Z,15.10
2018-09-09T05:23:31.253Z,15.10
2018-09-09T05:25:58.411Z,15.00
2018-09-09T05:28:25.651Z,15.00
2018-09-09T05:30:52.842Z,15.00
2018-09-09T05:33:20.100Z,15.10
2018-09-09T05:35:47.321Z,15.00
2018-09-09T05:38:14.461Z,15.00
2018-09-09T05:40:41.649Z,15.10
2018-09-09T05:43:08.946Z,15.20
2018-09-09T05:45:36.279Z,15.30
2018-09-09T05:48:06.204Z,15.30
2018-09-09T05:50:33.610Z,15.40
2018-09-09T05:53:06.075Z,15.50
2018-09-09T05:55:33.218Z,15.50
2018-09-09T05:58:00.447Z,15.50
2018-09-09T06:00:27.632Z,15.60
2018-09-09T06:02:54.944Z,15.70
2018-09-09T06:05:22.305Z,15.80
2018-09-09T06:07:49.444Z,15.90
2018-09-09T06:10:16.622Z,15.80
2018-09-09T06:12:43.790Z,15.80
2018-09-09T06:15:12.691Z,15.90
2018-09-09T06:17:40.827Z,15.90
2018-09-09T06:20:10.269Z,16.00
2018-09-09T06:22:37.505Z,16.00
2018-09-09T06:25:04.668Z,16.00
2018-09-09T06:27:31.864Z,16.00
2018-09-09T06:29:59.089Z,16.10
2018-09-09T06:32:26.318Z,16.10
2018-09-09T06:34:53.516Z,16.10
2018-09-09T06:37:21.766Z,16.10
2018-09-09T06:39:49.977Z,16.10
2018-09-09T06:42:18.446Z,16.00
2018-09-09T06:44:46.327Z,15.90
2018-09-09T06:47:13.595Z,15.80
2018-09-09T06:49:40.872Z,16.00
2018-09-09T06:52:08.354Z,15.90
2018-09-09T06:54:35.496Z,16.00
2018-09-09T06:57:02.787Z,16.10
2018-09-09T06:59:37.875Z,16.40
2018-09-09T07:02:06.053Z,16.50
2018-09-09T07:04:33.973Z,16.60
2018-09-09T07:07:02.140Z,16.70
2018-09-09T07:09:29.399Z,16.70
2018-09-09T07:11:56.813Z,16.60
2018-09-09T07:14:24.160Z,16.70
2018-09-09T07:16:52.108Z,16.70
2018-09-09T07:19:19.746Z,16.70
2018-09-09T07:21:47.193Z,16.80
2018-09-09T07:24:16.651Z,16.80
2018-09-09T07:26:44.564Z,16.90
2018-09-09T07:29:12.812Z,16.90
2018-09-09T07:31:40.929Z,16.90
2018-09-09T07:34:08.489Z,16.70
2018-09-09T07:36:36.870Z,16.50
2018-09-09T07:39:05.532Z,16.50
2018-09-09T07:41:32.701Z,16.60
2018-09-09T07:44:00.609Z,16.80
2018-09-09T07:46:28.205Z,16.90
2018-09-09T07:48:56.212Z,17.10
2018-09-09T07:51:23.669Z,17.20
2018-09-09T07:53:51.046Z,17.40
2018-09-09T07:56:19.078Z,17.50
2018-09-09T07:58:46.256Z,17.50
2018-09-09T08:01:14.149Z,17.50
2018-09-09T08:03:42.867Z,17.50
2018-09-09T08:06:11.646Z,17.60
2018-09-09T08:08:38.908Z,17.80
2018-09-09T08:11:06.055Z,17.80
2018-09-09T08:13:33.361Z,17.90
2018-09-09T08:16:00.802Z,17.80
2018-09-09T08:18:28.153Z,17.40
2018-09-09T08:20:55.674Z,17.40
2018-09-09T08:23:22.976Z,17.40
2018-09-09T08:25:50.129Z,17.50
2018-09-09T08:28:17.302Z,17.60
2018-09-09T08:30:44.480Z,17.70
2018-09-09T08:33:11.762Z,17.80
2018-09-09T08:35:39.069Z,18.10
2018-09-09T08:38:06.366Z,18.30
2018-09-09T08:40:33.658Z,18.20
2018-09-09T08:43:00.907Z,18.50
2018-09-09T08:45:28.297Z,18.40
2018-09-09T08:47:55.948Z,18.40
2018-09-09T08:50:23.197Z,18.50
2018-09-09T08:52:50.362Z,18.70
2018-09-09T08:55:17.610Z,19.00
2018-09-09T08:57:44.950Z,19.10
2018-09-09T09:00:12.142Z,19.10
2018-09-09T09:02:43.477Z,19.10
2018-09-09T09:05:10.916Z,19.20
2018-09-09T09:07:38.974Z,19.40
2018-09-09T09:10:06.195Z,19.60
2018-09-09T09:12:37.207Z,19.60
2018-09-09T09:15:04.733Z,19.50
2018-09-09T09:17:32.657Z,19.50
2018-09-09T09:19:59.972Z,19.60
2018-09-09T09:22:27.147Z,19.80
2018-09-09T09:24:54.399Z,19.90
2018-09-09T09:27:21.980Z,20.00
2018-09-09T09:29:54.936Z,20.20
2018-09-09T09:32:22.579Z,20.50
2018-09-09T09:34:49.938Z,20.60
2018-09-09T09:37:17.704Z,20.80
2018-09-09T09:39:46.993Z,20.60
2018-09-09T09:42:15.224Z,20.60
2018-09-09T09:44:43.689Z,20.50
2018-09-09T09:47:11.044Z,20.60
2018-09-09T09:49:38.506Z,20.60
2018-09-09T09:52:06.648Z,20.70
2018-09-09T09:54:34.035Z,20.80
2018-09-09T09:57:01.699Z,20.80
2018-09-09T09:59:28.958Z,20.80
2018-09-09T10:01:56.269Z,20.90
2018-09-09T10:04:23.672Z,20.90
2018-09-09T10:06:51.116Z,20.90
2018-09-09T10:09:18.530Z,20.90
2018-09-09T10:11:45.934Z,20.90
2018-09-09T10:14:13.188Z,20.90
2018-09-09T10:16:40.396Z,20.90
2018-09-09T10:19:07.587Z,20.90
2018-09-09T10:21:35.108Z,21.00
2018-09-09T10:24:02.364Z,21.00
2018-09-09T10:26:29.917Z,21.00
2018-09-09T10:28:57.197Z,21.00
2018-09-09T10:31:24.397Z,20.90
2018-09-09T10:33:52.400Z,21.00
2018-09-09T10:36:19.589Z,21.00
2018-09-09T10:38:46.918Z,21.00
2018-09-09T10:41:14.291Z,21.10
2018-09-09T10:43:41.620Z,21.10
2018-09-09T10:46:09.810Z,21.10
2018-09-09T10:48:37.076Z,21.20
2018-09-09T10:51:08.423Z,21.40
2018-09-09T10:53:35.713Z,21.50
2018-09-09T10:56:03.053Z,21.50
2018-09-09T10:58:30.296Z,21.60
2018-09-09T11:00:57.611Z,21.60
2018-09-09T11:03:25.072Z,21.70
2018-09-09T11:05:53.006Z,21.90
2018-09-09T11:08:20.225Z,22.10
2018-09-09T11:10:47.465Z,22.20
2018-09-09T11:13:15.789Z,22.20
2018-09-09T11:15:43.171Z,22.20
2018-09-09T11:18:10.517Z,22.30
2018-09-09T11:20:37.878Z,22.40
2018-09-09T11:23:05.666Z,22.50
2018-09-09T11:25:33.653Z,22.70
2018-09-09T11:28:00.936Z,23.00
2018-09-09T11:30:28.851Z,23.10
2018-09-09T11:32:57.127Z,23.20
2018-09-09T11:35:24.541Z,23.30
2018-09-09T11:37:52.612Z,23.30
2018-09-09T11:40:19.852Z,23.10
2018-09-09T11:42:47.553Z,23.20
2018-09-09T11:45:15.112Z,23.40
2018-09-09T11:47:43.025Z,23.60
2018-09-09T11:50:10.317Z,23.80
2018-09-09T11:52:37.632Z,23.70
2018-09-09T11:55:04.940Z,23.50
2018-09-09T11:57:32.315Z,23.70
2018-09-09T11:59:59.568Z,23.90
2018-09-09T12:02:27.305Z,24.10
2018-09-09T12:04:54.542Z,24.30
2018-09-09T12:07:22.789Z,24.10
2018-09-09T12:09:50.017Z,24.30
2018-09-09T12:12:17.475Z,24.60
2018-09-09T12:14:44.780Z,25.00
2018-09-09T12:17:12.142Z,25.10
2018-09-09T12:19:39.580Z,25.00
2018-09-09T12:22:09.859Z,24.90
2018-09-09T12:24:37.196Z,24.60
2018-09-09T12:27:04.532Z,24.60
2018-09-09T12:29:31.901Z,25.10
2018-09-09T12:32:01.133Z,25.50
2018-09-09T12:34:28.607Z,25.30
2018-09-09T12:36:55.942Z,25.40
2018-09-09T12:39:23.408Z,25.60
2018-09-09T12:41:50.858Z,25.80
2018-09-09T12:44:24.021Z,25.90
2018-09-09T12:46:58.136Z,25.70
2018-09-09T12:49:25.562Z,25.80
2018-09-09T12:51:53.127Z,25.80
2018-09-09T12:54:20.751Z,25.80
2018-09-09T12:56:48.023Z,25.90
2018-09-09T12:59:15.300Z,26.00
2018-09-09T13:01:42.557Z,26.30
2018-09-09T13:04:10.009Z,26.60
2018-09-09T13:06:37.219Z,26.60
2018-09-09T13:09:06.473Z,26.60
2018-09-09T13:11:33.692Z,26.60
2018-09-09T13:14:00.944Z,27.00
2018-09-09T13:16:28.166Z,27.10
2018-09-09T13:18:55.451Z,26.80
2018-09-09T13:21:22.913Z,26.90
2018-09-09T13:23:50.281Z,27.00
2018-09-09T13:26:21.307Z,26.90
2018-09-09T13:28:48.611Z,26.90
2018-09-09T13:31:16.071Z,26.90
2018-09-09T13:33:43.498Z,26.90
2018-09-09T13:36:10.690Z,26.70
2018-09-09T13:38:38.100Z,26.70
2018-09-09T13:41:06.050Z,26.60
2018-09-09T13:43:33.371Z,26.50
2018-09-09T13:46:00.720Z,26.60
2018-09-09T13:48:28.203Z,26.90
2018-09-09T13:50:55.576Z,26.90
2018-09-09T13:53:22.989Z,26.70
2018-09-09T13:55:50.380Z,26.90
2018-09-09T13:58:17.739Z,26.80
2018-09-09T14:00:44.956Z,26.60
2018-09-09T14:03:12.187Z,26.30
2018-09-09T14:05:39.402Z,26.00
2018-09-09T14:08:06.668Z,26.00
2018-09-09T14:10:34.050Z,26.20
2018-09-09T14:13:01.301Z,26.40
2018-09-09T14:15:28.519Z,26.70
2018-09-09T14:17:55.833Z,27.30
2018-09-09T14:20:23.817Z,27.50
2018-09-09T14:22:51.913Z,27.30
2018-09-09T14:25:19.337Z,27.50
2018-09-09T14:27:46.758Z,27.70
2018-09-09T14:30:14.246Z,27.70
2018-09-09T14:32:42.081Z,27.70
2018-09-09T14:35:10.727Z,27.90
2018-09-09T14:37:38.140Z,27.80
2018-09-09T14:40:05.766Z,27.90
2018-09-09T14:42:33.032Z,28.00
2018-09-09T14:45:02.067Z,28.30
2018-09-09T14:47:29.432Z,28.40
2018-09-09T14:49:56.713Z,28.60
2018-09-09T14:52:24.096Z,28.20
2018-09-09T14:54:51.523Z,28.30
2018-09-09T14:57:18.818Z,28.20
2018-09-09T14:59:46.704Z,28.20
2018-09-09T15:02:14.293Z,28.40
2018-09-09T15:04:42.151Z,28.60
2018-09-09T15:07:11.468Z,28.60
2018-09-09T15:09:39.586Z,28.70
2018-09-09T15:12:07.178Z,28.90
2018-09-09T15:14:35.589Z,29.00
2018-09-09T15:17:03.497Z,29.10
2018-09-09T15:19:30.890Z,29.10
2018-09-09T15:21:58.239Z,28.90
2018-09-09T15:24:25.623Z,28.50
2018-09-09T15:26:52.941Z,28.40
2018-09-09T15:29:20.263Z,28.10
2018-09-09T15:31:47.799Z,27.70
2018-09-09T15:34:15.367Z,27.40
2018-09-09T15:36:43.200Z,27.20
2018-09-09T15:39:11.009Z,27.20
2018-09-09T15:41:38.405Z,27.10
2018-09-09T15:44:06.919Z,27.10
2018-09-09T15:46:35.326Z,27.10
2018-09-09T15:49:02.772Z,27.20
2018-09-09T15:51:30.946Z,27.10
2018-09-09T15:53:58.379Z,26.90
2018-09-09T15:56:25.735Z,26.80
2018-09-09T15:58:53.515Z,26.60
2018-09-09T16:01:21.448Z,26.50
2018-09-09T16:03:48.771Z,26.50
2018-09-09T16:06:16.353Z,26.30
2018-09-09T16:08:44.338Z,26.10
2018-09-09T16:11:11.776Z,26.10
2018-09-09T16:13:39.624Z,26.00
2018-09-09T16:16:07.010Z,26.00
2018-09-09T16:18:35.326Z,25.90
2018-09-09T16:21:02.620Z,25.90
2018-09-09T16:23:29.873Z,25.80
2018-09-09T16:25:57.951Z,25.70
2018-09-09T16:28:25.565Z,25.60
2018-09-09T16:30:52.969Z,25.70
2018-09-09T16:33:20.330Z,25.70
2018-09-09T16:35:48.234Z,25.70
2018-09-09T16:38:15.566Z,25.60
2018-09-09T16:40:42.986Z,25.60
2018-09-09T16:43:10.317Z,25.50
2018-09-09T16:45:37.754Z,25.60
2018-09-09T16:48:05.253Z,25.50
2018-09-09T16:50:32.467Z,25.50
2018-09-09T16:52:59.832Z,25.50
2018-09-09T16:55:27.282Z,25.40
2018-09-09T16:57:54.602Z,25.40
2018-09-09T17:00:22.021Z,25.40
2018-09-09T17:02:51.473Z,25.30
2018-09-09T17:05:18.983Z,25.20
2018-09-09T17:07:46.832Z,25.20
2018-09-09T17:10:15.466Z,25.10
2018-09-09T17:12:43.041Z,25.00
2018-09-09T17:15:10.864Z,25.00
2018-09-09T17:17:38.784Z,24.90
2018-09-09T17:20:07.193Z,24.80
2018-09-09T17:22:35.677Z,24.80
2018-09-09T17:25:03.408Z,24.70
2018-09-09T17:27:30.864Z,24.70
2018-09-09T17:29:58.290Z,24.60
2018-09-09T17:32:25.716Z,24.50
2018-09-09T17:34:52.995Z,24.50
2018-09-09T17:37:20.991Z,24.40
2018-09-09T17:39:48.468Z,24.30
2018-09-09T17:42:15.897Z,24.20
2018-09-09T17:44:43.329Z,24.20
2018-09-09T17:47:11.205Z,24.10
2018-09-09T17:49:38.571Z,24.00
2018-09-09T17:52:06.016Z,23.90
2018-09-09T17:54:33.609Z,23.90
2018-09-09T17:57:00.870Z,23.80
2018-09-09T17:59:28.772Z,23.80
2018-09-09T18:01:56.093Z,23.70
2018-09-09T18:04:23.527Z,23.60
2018-09-09T18:06:51.116Z,23.60
2018-09-09T18:09:18.600Z,23.50
2018-09-09T18:11:46.100Z,23.40
2018-09-09T18:14:14.241Z,23.30
2018-09-09T18:16:42.251Z,23.20
2018-09-09T18:19:09.697Z,23.20
2018-09-09T18:21:38.858Z,23.20
2018-09-09T18:24:06.089Z,23.10
2018-09-09T18:26:33.961Z,23.00
2018-09-09T18:29:01.312Z,23.00
2018-09-09T18:31:29.769Z,22.90
2018-09-09T18:33:57.215Z,22.90
2018-09-09T18:36:25.548Z,22.80
2018-09-09T18:38:53.431Z,22.80
2018-09-09T18:41:20.854Z,22.70
2018-09-09T18:43:50.417Z,22.70
2018-09-09T18:46:17.873Z,22.70
2018-09-09T18:48:45.501Z,22.80
2018-09-09T18:51:13.733Z,22.70
2018-09-09T18:53:41.214Z,22.60
2018-09-09T18:56:09.588Z,22.50
2018-09-09T18:58:37.234Z,22.50
2018-09-09T19:01:05.689Z,22.50
2018-09-09T19:03:33.398Z,22.40
2018-09-09T19:06:02.634Z,22.40
2018-09-09T19:08:30.444Z,22.50
2018-09-09T19:10:58.651Z,22.30
2018-09-09T19:13:26.299Z,22.20
2018-09-09T19:15:54.770Z,22.10
2018-09-09T19:18:22.433Z,22.10
2018-09-09T19:20:50.369Z,21.90
2018-09-09T19:23:20.303Z,21.80
2018-09-09T19:25:47.767Z,21.70
2018-09-09T19:28:16.393Z,21.70
2018-09-09T19:30:43.976Z,21.60
2018-09-09T19:33:11.458Z,21.70
2018-09-09T19:35:40.617Z,21.70
2018-09-09T19:38:12.084Z,21.70
2018-09-09T19:40:39.895Z,21.60
2018-09-09T19:43:11.026Z,21.50
2018-09-09T19:45:43.794Z,21.50
2018-09-09T19:48:18.539Z,21.50
2018-09-09T19:50:55.343Z,21.50
2018-09-09T19:53:23.668Z,21.40
2018-09-09T19:55:51.388Z,21.30
2018-09-09T19:58:18.762Z,21.30
2018-09-09T20:00:46.693Z,21.30
2018-09-09T20:03:14.034Z,21.20
2018-09-09T20:05:43.162Z,21.00
2018-09-09T20:11:25.413Z,20.80
2018-09-09T20:16:38.194Z,20.60
2018-09-09T20:19:05.782Z,20.50
2018-09-09T20:21:34.290Z,20.30
2018-09-09T20:24:01.648Z,20.20
2018-09-09T20:26:33.988Z,20.30
2018-09-09T20:29:01.723Z,20.30
2018-09-09T20:31:29.720Z,20.40
2018-09-09T20:33:57.047Z,20.50
2018-09-09T20:36:24.594Z,20.30
2018-09-09T20:38:52.022Z,20.30
2018-09-09T20:41:20.113Z,20.40
2018-09-09T20:43:47.689Z,20.30
2018-09-09T20:46:35.475Z,20.30
2018-09-09T20:50:21.837Z,20.30
2018-09-09T20:52:49.797Z,20.20
2018-09-09T20:55:17.365Z,20.20
2018-09-09T20:57:46.839Z,20.20
2018-09-09T21:00:14.379Z,20.10
2018-09-09T21:02:43.888Z,20.00
2018-09-09T21:05:11.503Z,19.80
2018-09-09T21:07:39.062Z,19.80
2018-09-09T21:10:06.514Z,19.90
2018-09-09T21:12:34.477Z,19.90
2018-09-09T21:15:05.561Z,19.90
2018-09-09T21:17:33.506Z,19.70
2018-09-09T21:20:01.095Z,19.60
2018-09-09T21:22:28.539Z,19.50
2018-09-09T21:24:55.737Z,19.50
2018-09-09T21:27:23.324Z,19.40
2018-09-09T21:29:50.756Z,19.30
2018-09-09T21:32:18.721Z,19.20
2018-09-09T21:34:46.032Z,19.10
2018-09-09T21:37:13.246Z,19.00
2018-09-09T21:39:40.929Z,18.90
2018-09-09T21:42:08.553Z,18.90
2018-09-09T21:44:35.976Z,19.00
2018-09-09T21:47:03.286Z,18.90
2018-09-09T21:49:30.673Z,18.90
2018-09-09T21:52:14.936Z,18.90
2018-09-09T21:54:47.618Z,18.90
2018-09-09T21:57:15.794Z,19.00
2018-09-09T21:59:43.029Z,19.00
2018-09-09T22:02:10.302Z,18.90
2018-09-09T22:04:38.538Z,18.90
2018-09-09T22:07:11.046Z,18.80
2018-09-09T22:09:38.952Z,18.80
2018-09-09T22:12:07.221Z,18.80
2018-09-09T22:14:34.450Z,18.70
2018-09-09T22:17:01.713Z,18.70
2018-09-09T22:19:28.910Z,18.70
2018-09-09T22:21:58.194Z,18.60
2018-09-09T22:24:25.475Z,18.60
2018-09-09T22:26:52.665Z,18.60
2018-09-09T22:29:19.846Z,18.50
2018-09-09T22:31:47.008Z,18.40
2018-09-09T22:34:14.538Z,18.40
2018-09-09T22:36:41.893Z,18.40
2018-09-09T22:39:10.032Z,18.40
2018-09-09T22:41:38.121Z,18.40
2018-09-09T22:44:07.606Z,18.40
2018-09-09T22:46:34.884Z,18.30
2018-09-09T22:49:02.068Z,18.30
2018-09-09T22:51:29.336Z,18.30
2018-09-09T22:53:56.610Z,18.40
2018-09-09T22:56:23.806Z,18.30
2018-09-09T22:58:50.989Z,18.20
2018-09-09T23:01:18.240Z,18.20
2018-09-09T23:03:45.546Z,18.10
2018-09-09T23:06:13.866Z,18.20
2018-09-09T23:08:41.294Z,18.20
2018-09-09T23:11:08.464Z,18.20
2018-09-09T23:13:35.808Z,18.10
2018-09-09T23:16:03.027Z,18.20
2018-09-09T23:18:30.282Z,18.20
2018-09-09T23:20:57.481Z,18.20
2018-09-09T23:23:24.724Z,18.10
2018-09-09T23:25:51.904Z,18.00
2018-09-09T23:28:19.137Z,17.90
2018-09-09T23:30:46.339Z,17.70
2018-09-09T23:33:13.584Z,17.50
2018-09-09T23:35:40.773Z,17.40
2018-09-09T23:38:08.030Z,17.40
2018-09-09T23:40:35.280Z,17.40
2018-09-09T23:43:02.635Z,17.50
2018-09-09T23:46:11.281Z,17.60
2018-09-09T23:48:38.514Z,17.70
2018-09-09T23:51:05.732Z,17.70
2018-09-09T23:53:33.032Z,17.60
2018-09-09T23:56:00.180Z,17.60
2018-09-09T23:58:27.406Z,17.60
